Time;durP1;ratioP1;P1;durP2;ratioP2;P2;SDS_P1;SDS_P2;PMS_P1;PMS_P2;Temp;Humidity;BMP_temperature;BMP_pressure;BME280_temperature;BME280_humidity;BME280_pressure;Samples;Min_cycle;Max_cycle;Signal;HPM_P1;HPM_P2
2021/04/12 00:02:04;;;;;;;2.15;1.25;;;;;;;9.81;70.14;96033.06;5050900;28;20060;-64
2021/04/12 00:04:37;;;;;;;1.58;1.17;;;;;;;9.83;69.94;96027.31;5051704;28;20041;-64
2021/04/12 00:07:11;;;;;;;1.08;0.90;;;;;;;9.92;69.49;96033.56;5049977;28;20424;-65
2021/04/12 00:09:43;;;;;;;1.50;1.05;;;;;;;9.97;69.30;96029.84;5051545;28;20060;-65
2021/04/12 00:12:14;;;;;;;1.63;1.10;;;;;;;10.03;69.10;96029.38;5050658;28;20127;-65
2021/04/12 00:14:44;;;;;;;1.55;1.20;;;;;;;10.03;69.22;96028.59;5050850;28;20132;-65
2021/04/12 00:17:16;;;;;;;1.40;1.10;;;;;;;9.98;69.32;96026.84;5050993;28;20056;-65
2021/04/12 00:19:49;;;;;;;1.40;1.30;;;;;;;9.95;69.40;96027.47;5050464;28;20059;-65
2021/04/12 00:22:21;;;;;;;2.20;1.30;;;;;;;9.95;69.38;96024.75;5051128;28;20048;-65
2021/04/12 00:24:53;;;;;;;2.17;1.15;;;;;;;9.97;69.27;96025.25;5050136;28;20045;-65
2021/04/12 00:27:23;;;;;;;1.33;1.20;;;;;;;9.98;69.13;96021.41;5050282;28;20076;-65
2021/04/12 00:29:53;;;;;;;1.95;1.40;;;;;;;9.97;68.98;96025.25;5050049;28;20064;-64
2021/04/12 00:32:24;;;;;;;3.50;1.40;;;;;;;9.93;69.21;96018.84;5050298;28;20041;-65
2021/04/12 00:34:58;;;;;;;2.88;1.58;;;;;;;9.95;68.93;96027.47;5051133;28;20063;-65
2021/04/12 00:37:30;;;;;;;2.08;1.63;;;;;;;9.96;69.08;96029.06;5049714;28;20099;-65
2021/04/12 00:40:01;;;;;;;2.08;1.40;;;;;;;10.00;69.07;96029.22;5051316;28;20041;-65
2021/04/12 00:42:58;;;;;;;1.60;1.23;;;;;;;10.01;69.12;96025.38;5049954;28;20048;-64
2021/04/12 00:45:59;;;;;;;2.55;1.92;;;;;;;10.06;68.89;96023.28;5049766;28;20053;-65
2021/04/12 00:48:52;;;;;;;2.28;1.60;;;;;;;10.08;68.61;96014.81;5050600;28;20040;-65
2021/04/12 00:51:41;;;;;;;2.17;1.63;;;;;;;10.06;68.89;96006.97;5045257;28;20040;-65
2021/04/12 00:54:29;;;;;;;2.85;1.58;;;;;;;10.09;68.86;96014.50;5050211;28;20052;-65
2021/04/12 00:57:02;;;;;;;2.50;2.10;;;;;;;10.07;68.89;96008.56;5050656;28;20102;-65
2021/04/12 00:59:43;;;;;;;4.25;1.92;;;;;;;10.07;68.72;96003.13;5049521;28;20132;-64
2021/04/12 01:02:18;;;;;;;2.15;1.65;;;;;;;10.08;68.81;96009.38;5050436;28;20049;-65
2021/04/12 01:04:58;;;;;;;2.40;2.00;;;;;;;10.06;68.82;96006.97;5049794;28;20045;-64
2021/04/12 01:07:38;;;;;;;4.15;2.25;;;;;;;10.04;68.69;96003.78;5050000;28;20071;-65
2021/04/12 01:10:28;;;;;;;3.35;1.52;;;;;;;9.97;69.02;96008.91;5049730;28;20053;-65
2021/04/12 01:13:18;;;;;;;2.47;1.98;;;;;;;9.89;69.37;96012.44;5049803;28;20045;-65
2021/04/12 01:16:22;;;;;;;2.15;1.75;;;;;;;9.89;69.99;96007.00;5050740;28;20044;-65
2021/04/12 01:19:12;;;;;;;2.05;1.60;;;;;;;9.91;70.00;96018.34;5050716;28;20045;-65
2021/04/12 01:22:11;;;;;;;2.05;1.60;;;;;;;9.96;69.92;96023.63;5049438;28;20045;-64
2021/04/12 01:25:19;;;;;;;3.85;2.17;;;;;;;9.98;69.51;96021.41;5006306;28;20072;-64
2021/04/12 01:28:33;;;;;;;3.13;2.17;;;;;;;9.97;70.08;96010.81;5049519;28;20060;-64
2021/04/12 01:31:30;;;;;;;2.45;2.00;;;;;;;9.97;70.04;96017.09;5049314;28;20049;-65
2021/04/12 01:34:28;;;;;;;2.30;1.83;;;;;;;10.00;70.33;96019.13;5050044;28;20608;-65
2021/04/12 01:37:12;;;;;;;2.45;1.80;;;;;;;10.00;70.53;96019.13;5049864;28;20048;-64
2021/04/12 01:39:53;;;;;;;2.13;1.70;;;;;;;9.98;70.84;96018.69;5050908;28;20049;-65
2021/04/12 01:42:33;;;;;;;2.67;2.10;;;;;;;9.97;70.77;96025.25;5053986;28;20534;-65
2021/04/12 01:45:12;;;;;;;2.63;2.15;;;;;;;10.00;70.79;96030.03;5053703;28;20076;-65
2021/04/12 01:47:49;;;;;;;3.25;2.25;;;;;;;10.00;70.89;96032.75;5053936;28;20124;-67
2021/04/12 01:50:24;;;;;;;3.15;2.17;;;;;;;9.99;71.03;96028.44;5053493;28;20132;-66
2021/04/12 01:53:20;;;;;;;4.10;2.22;;;;;;;10.04;71.16;96019.31;5053314;28;20045;-65
2021/04/12 01:56:04;;;;;;;4.22;2.45;;;;;;;10.07;71.09;96033.03;5024801;28;20053;-65
2021/04/12 01:58:43;;;;;;;3.50;2.60;;;;;;;10.10;70.80;96032.41;5052828;28;20049;-64
2021/04/12 02:01:26;;;;;;;4.80;2.85;;;;;;;10.05;70.70;96038.00;5053125;28;20049;-65
2021/04/12 02:04:19;;;;;;;2.35;2.08;;;;;;;10.08;70.65;96037.38;5053768;28;20045;-64
2021/04/12 02:07:03;;;;;;;3.97;2.50;;;;;;;10.11;70.93;96042.16;5049427;28;20102;-64
2021/04/12 02:10:02;;;;;;;4.00;2.88;;;;;;;10.14;70.57;96036.09;5053474;28;20049;-67
2021/04/12 02:12:56;;;;;;;3.85;2.88;;;;;;;10.15;70.65;96048.56;5053140;28;20095;-66
2021/04/12 02:15:30;;;;;;;3.42;2.75;;;;;;;10.09;70.76;96044.41;5032346;28;20595;-64
2021/04/12 02:18:10;;;;;;;3.75;2.92;;;;;;;10.03;70.79;96043.00;5034002;28;20520;-66
2021/04/12 02:20:49;;;;;;;3.25;2.63;;;;;;;9.99;71.23;96044.75;5032878;28;20052;-66
2021/04/12 02:23:29;;;;;;;3.40;2.70;;;;;;;9.99;71.30;96061.06;5051002;28;20570;-66
2021/04/12 02:26:20;;;;;;;2.95;2.58;;;;;;;9.99;71.50;96047.47;5053196;28;20053;-67
2021/04/12 02:29:09;;;;;;;3.35;2.70;;;;;;;9.96;71.62;96047.31;5040905;28;20563;-64
2021/04/12 02:31:47;;;;;;;5.00;3.03;;;;;;;9.90;71.88;96043.94;5053513;28;20102;-64
2021/04/12 02:34:24;;;;;;;3.90;2.90;;;;;;;9.90;72.11;96041.22;5052092;28;20045;-64
2021/04/12 02:37:07;;;;;;;3.67;2.97;;;;;;;10.03;72.17;96044.91;5052861;28;20492;-64
2021/04/12 02:40:01;;;;;;;4.00;3.10;;;;;;;10.07;72.15;96040.41;5053250;28;20041;-65
2021/04/12 02:42:43;;;;;;;4.70;3.80;;;;;;;10.12;71.74;96035.59;5052068;28;20056;-64
2021/04/12 02:45:25;;;;;;;5.25;3.67;;;;;;;10.18;71.62;96042.50;5052332;28;20052;-65
2021/04/12 02:48:06;;;;;;;4.13;3.40;;;;;;;10.23;71.25;96046.16;5052847;28;20048;-64
2021/04/12 02:50:47;;;;;;;6.15;4.50;;;;;;;10.18;71.87;96042.50;5052159;28;20138;-65
2021/04/12 02:53:31;;;;;;;6.53;4.47;;;;;;;10.23;72.02;96040.69;5052315;28;20044;-64
2021/04/12 02:56:15;;;;;;;7.80;4.47;;;;;;;10.25;71.44;96050.19;5051926;28;20053;-65
2021/04/12 02:59:17;;;;;;;7.18;4.65;;;;;;;10.22;71.65;96048.06;5052602;28;20052;-65
2021/04/12 03:02:04;;;;;;;8.10;5.55;;;;;;;10.26;71.20;96049.06;5052853;28;20044;-64
2021/04/12 03:04:52;;;;;;;7.93;5.75;;;;;;;10.31;70.90;96045.38;5051494;28;20075;-65
2021/04/12 03:07:42;;;;;;;11.20;6.07;;;;;;;10.38;71.16;96051.09;5052201;28;20045;-65
2021/04/12 03:10:25;;;;;;;8.00;6.40;;;;;;;10.44;70.55;96061.53;5051854;28;20512;-66
2021/04/12 03:13:03;;;;;;;7.13;5.85;;;;;;;10.43;70.50;96064.53;5051814;28;20441;-65
2021/04/12 03:15:55;;;;;;;10.40;6.80;;;;;;;10.50;70.45;96061.34;5052613;28;20076;-65
2021/04/12 03:18:58;;;;;;;9.75;7.57;;;;;;;10.54;70.11;96065.00;5050930;28;20049;-65
2021/04/12 03:22:06;;;;;;;14.10;8.65;;;;;;;10.53;70.58;96064.19;5051040;28;20053;-65
2021/04/12 03:24:47;;;;;;;11.63;9.73;;;;;;;10.46;69.92;96069.34;5042448;28;20116;-65
2021/04/12 03:27:32;;;;;;;12.52;10.52;;;;;;;10.47;69.83;96076.41;5050354;28;20045;-65
2021/04/12 03:30:14;;;;;;;14.55;10.23;;;;;;;10.48;69.83;96078.00;5051216;28;20048;-64
2021/04/12 03:33:02;;;;;;;11.55;9.02;;;;;;;10.50;69.63;96081.19;5051942;28;20045;-65
2021/04/12 03:35:40;;;;;;;9.77;8.00;;;;;;;10.44;69.19;96082.50;5050951;28;20549;-65
2021/04/12 03:38:42;;;;;;;10.05;7.68;;;;;;;10.41;69.12;96088.59;5052085;28;20056;-65
2021/04/12 03:41:51;;;;;;;9.75;7.53;;;;;;;10.36;69.27;96086.03;4969960;28;20576;-65
2021/04/12 03:44:37;;;;;;;8.38;6.47;;;;;;;10.17;69.37;96086.31;5050399;28;20517;-65
2021/04/12 03:47:27;;;;;;;9.02;6.60;;;;;;;10.06;69.88;96083.13;5051661;28;20408;-65
2021/04/12 03:50:20;;;;;;;9.43;7.68;;;;;;;9.93;70.82;96087.63;5051516;28;20045;-64
2021/04/12 03:53:10;;;;;;;9.10;6.90;;;;;;;9.78;71.58;96087.31;5050821;28;20503;-64
2021/04/12 03:56:07;;;;;;;11.82;6.70;;;;;;;9.68;71.91;96102.00;5051853;28;20094;-64
2021/04/12 03:58:51;;;;;;;8.73;6.82;;;;;;;9.66;72.15;96102.34;5050964;28;20060;-65
2021/04/12 04:01:34;;;;;;;8.50;6.53;;;;;;;9.59;72.47;96104.72;5050624;28;20045;-65
2021/04/12 04:04:22;;;;;;;10.00;6.80;;;;;;;9.60;72.49;96103.59;5050643;28;20056;-65
2021/04/12 04:07:17;;;;;;;9.60;6.85;;;;;;;9.56;72.45;96108.06;5050399;28;20045;-65
2021/04/12 04:09:50;;;;;;;10.52;6.82;;;;;;;9.61;72.64;96112.56;5051206;28;20045;-64
2021/04/12 04:12:33;;;;;;;;;;;;;;;9.64;72.72;96115.44;5051293;28;20401;-64
2021/04/12 04:15:24;;;;;;;10.75;7.05;;;;;;;9.61;72.41;96113.38;5049651;28;19920;-65
2021/04/12 04:18:23;;;;;;;8.32;6.65;;;;;;;9.62;73.13;96112.25;5051496;28;20513;-64
2021/04/12 04:21:03;;;;;;;10.50;7.80;;;;;;;9.48;73.23;96105.34;5050390;28;20086;-66
2021/04/12 04:23:46;;;;;;;9.35;7.15;;;;;;;9.33;73.76;96114.72;5050027;28;20048;-64
2021/04/12 04:26:56;;;;;;;12.10;8.65;;;;;;;9.13;75.17;96126.97;5050525;28;20057;-64
2021/04/12 04:30:01;;;;;;;11.20;8.45;;;;;;;9.01;76.48;96130.28;5029781;28;20057;-67
2021/04/12 04:32:59;;;;;;;11.63;8.55;;;;;;;8.99;76.96;96131.72;5030560;28;20041;-65
2021/04/12 04:35:49;;;;;;;11.90;8.63;;;;;;;8.91;76.38;96141.41;5030855;28;20041;-67
2021/04/12 04:38:36;;;;;;;12.65;10.02;;;;;;;8.83;76.23;96151.13;5029845;28;20045;-67
2021/04/12 04:41:26;;;;;;;12.00;8.45;;;;;;;8.76;75.74;96155.38;5030208;28;20133;-67
2021/04/12 04:44:29;;;;;;;11.00;8.70;;;;;;;8.68;75.85;96158.88;5042370;28;20056;-66
2021/04/12 04:47:24;;;;;;;11.23;8.95;;;;;;;8.48;76.38;96166.38;5046449;28;20055;-66
2021/04/12 04:50:22;;;;;;;12.38;9.38;;;;;;;8.37;77.40;96167.75;5050215;28;20036;-66
2021/04/12 04:53:04;;;;;;;14.35;10.95;;;;;;;8.25;77.90;96178.34;5050034;28;20060;-66
2021/04/12 04:55:53;;;;;;;15.52;10.77;;;;;;;8.23;78.43;96180.53;5031847;28;20412;-66
2021/04/12 04:58:30;;;;;;;12.63;9.93;;;;;;;8.19;78.88;96195.81;5050233;28;20095;-66
2021/04/12 05:01:19;;;;;;;12.00;9.20;;;;;;;8.08;78.77;96192.53;5050268;28;20052;-66
2021/04/12 05:04:42;;;;;;;12.52;8.98;;;;;;;7.97;78.52;96205.50;5049799;28;20037;-66
2021/04/12 05:07:45;;;;;;;11.95;8.38;;;;;;;7.95;78.75;96220.50;5049944;28;20470;-67
2021/04/12 05:10:42;;;;;;;9.65;6.95;;;;;;;7.91;78.38;96228.41;5049382;28;20095;-67
2021/04/12 05:13:15;;;;;;;8.27;6.18;;;;;;;7.80;77.67;96232.44;5049628;28;20049;-66
2021/04/12 05:16:20;;;;;;;6.35;5.22;;;;;;;7.64;77.42;96236.59;5050533;28;20044;-66
2021/04/12 05:19:17;;;;;;;6.15;4.80;;;;;;;7.64;77.13;96244.72;5049797;28;20049;-66
2021/04/12 05:22:17;;;;;;;8.52;5.10;;;;;;;7.51;77.11;96241.69;5049433;28;20041;-66
2021/04/12 05:25:04;;;;;;;5.85;4.60;;;;;;;7.50;77.08;96250.91;5050559;28;20045;-66
2021/04/12 05:27:55;;;;;;;6.50;4.80;;;;;;;7.56;77.38;96254.34;5049090;28;20048;-66
2021/04/12 05:31:00;;;;;;;6.10;4.60;;;;;;;7.59;77.41;96265.38;5049241;28;20775;-66
2021/04/12 05:33:49;;;;;;;6.72;5.15;;;;;;;7.49;77.09;96276.41;5025657;28;20045;-66
2021/04/12 05:37:03;;;;;;;7.75;5.80;;;;;;;7.47;76.30;96286.75;5048962;28;20049;-66
2021/04/12 05:39:54;;;;;;;7.22;5.57;;;;;;;7.27;76.79;96300.66;4968118;28;20122;-71
2021/04/12 05:42:39;;;;;;;6.40;5.22;;;;;;;7.19;77.14;96320.31;5049864;28;20471;-70
2021/04/12 05:45:25;;;;;;;6.65;4.53;;;;;;;6.90;76.06;96329.44;5048804;28;20084;-70
2021/04/12 05:48:37;;;;;;;3.83;2.88;;;;;;;6.45;75.82;96337.13;5049726;28;20048;-70
2021/04/12 05:51:14;;;;;;;4.88;3.05;;;;;;;6.31;76.27;96333.53;5050120;28;20041;-71
2021/04/12 05:54:08;;;;;;;4.28;2.95;;;;;;;6.06;77.01;96342.78;5029570;28;20517;-70
2021/04/12 05:57:12;;;;;;;4.32;3.30;;;;;;;5.90;78.15;96344.00;5030214;28;20052;-70
2021/04/12 05:59:53;;;;;;;4.95;3.38;;;;;;;5.77;79.17;96356.31;5001467;28;20053;-71
2021/04/12 06:02:34;;;;;;;4.47;3.28;;;;;;;5.60;79.12;96355.97;5028779;28;20099;-71
2021/04/12 06:05:09;;;;;;;4.78;3.42;;;;;;;5.46;79.52;96367.44;5030153;28;20045;-71
2021/04/12 06:08:18;;;;;;;4.63;3.15;;;;;;;5.27;79.16;96369.22;5029257;28;20042;-71
2021/04/12 06:11:00;;;;;;;6.10;3.70;;;;;;;5.16;79.88;96378.50;5029103;28;20094;-71
2021/04/12 06:14:10;;;;;;;4.20;3.25;;;;;;;5.17;80.77;96388.25;5037925;28;20175;-72
2021/04/12 06:17:02;;;;;;;2.78;2.08;;;;;;;4.98;79.94;96402.41;5046296;28;20045;-72
2021/04/12 06:20:06;;;;;;;2.50;1.77;;;;;;;4.73;79.84;96418.75;5038780;28;20456;-71
2021/04/12 06:23:07;;;;;;;2.33;1.70;;;;;;;4.53;80.12;96424.25;4998475;28;20053;-72
2021/04/12 06:25:56;;;;;;;2.97;2.00;;;;;;;4.37;80.02;96432.41;5046056;28;20060;-71
2021/04/12 06:28:47;;;;;;;2.53;1.83;;;;;;;4.17;79.94;96443.25;5049274;28;20071;-71
2021/04/12 06:31:37;;;;;;;2.30;1.80;;;;;;;3.91;80.36;96451.44;5050693;28;20449;-72
2021/04/12 06:34:23;;;;;;;3.05;1.73;;;;;;;3.78;80.93;96456.56;5049425;28;20049;-73
2021/04/12 06:37:00;;;;;;;3.33;1.90;;;;;;;3.71;81.17;96456.84;5050145;28;20088;-72
2021/04/12 06:39:52;;;;;;;3.22;2.30;;;;;;;3.65;81.99;96453.38;5050249;28;20048;-72
2021/04/12 06:42:51;;;;;;;2.75;1.90;;;;;;;3.69;81.87;96459.00;5049036;28;20049;-72
2021/04/12 06:45:56;;;;;;;3.22;1.80;;;;;;;3.57;81.79;96455.78;5029543;28;20107;-72
2021/04/12 06:48:54;;;;;;;2.35;1.73;;;;;;;3.45;81.54;96471.41;5029824;28;20049;-72
2021/04/12 06:51:48;;;;;;;2.47;1.77;;;;;;;3.53;82.04;96481.63;5031561;28;20060;-72
2021/04/12 06:54:42;;;;;;;3.65;2.45;;;;;;;3.44;81.76;96485.94;5049323;28;20539;-73
2021/04/12 06:57:26;;;;;;;;;;;;;;;3.47;82.20;96504.25;5049915;28;20060;-72
2021/04/12 07:00:17;;;;;;;3.80;2.13;;;;;;;3.34;82.66;96510.97;5049245;28;20000;-72
2021/04/12 07:03:25;;;;;;;4.68;2.15;;;;;;;3.23;82.85;96530.84;5049966;28;20040;-72
2021/04/12 07:06:16;;;;;;;4.65;2.60;;;;;;;3.20;83.31;96534.91;5049231;28;20037;-73
2021/04/12 07:09:19;;;;;;;3.38;2.35;;;;;;;3.14;83.29;96554.81;5048843;28;20041;-73
2021/04/12 07:12:23;;;;;;;2.10;1.70;;;;;;;2.83;82.96;96570.84;5049516;28;20052;-73
2021/04/12 07:15:33;;;;;;;2.53;1.80;;;;;;;2.83;84.31;96572.72;5049351;28;20280;-73
2021/04/12 07:18:56;;;;;;;2.90;2.05;;;;;;;2.79;84.22;96577.81;5026824;28;20439;-72
2021/04/12 07:22:00;;;;;;;2.80;1.83;;;;;;;2.69;84.27;96574.28;4966619;28;20062;-72
2021/04/12 07:24:48;;;;;;;2.97;2.00;;;;;;;2.69;84.48;96569.72;5048718;28;20056;-73
2021/04/12 07:27:47;;;;;;;4.30;2.03;;;;;;;2.68;84.48;96567.28;5047592;28;20523;-74
2021/04/12 07:30:50;;;;;;;3.10;2.03;;;;;;;2.68;84.54;96586.13;5048118;28;20041;-73
2021/04/12 07:33:58;;;;;;;4.57;2.20;;;;;;;2.65;84.67;96600.06;5048833;28;20048;-73
2021/04/12 07:36:40;;;;;;;3.17;2.13;;;;;;;2.69;84.58;96612.72;5048095;28;20090;-73
2021/04/12 07:39:51;;;;;;;3.90;2.27;;;;;;;2.67;84.24;96620.25;5050094;28;20072;-73
2021/04/12 07:42:54;;;;;;;4.25;2.00;;;;;;;2.63;84.10;96626.41;5052224;28;20094;-73
2021/04/12 07:46:05;;;;;;;4.65;2.20;;;;;;;2.56;84.22;96637.41;5030801;28;20051;-73
2021/04/12 07:49:08;;;;;;;2.83;2.03;;;;;;;2.44;84.04;96647.53;5031001;28;20053;-72
2021/04/12 07:52:08;;;;;;;3.35;2.30;;;;;;;2.51;84.69;96653.50;5021419;28;20044;-72
2021/04/12 07:54:56;;;;;;;3.67;2.10;;;;;;;2.32;84.48;96651.22;5051324;28;20049;-72
2021/04/12 07:57:59;;;;;;;3.38;2.20;;;;;;;2.26;84.43;96662.19;5050249;28;20775;-72
2021/04/12 08:00:58;;;;;;;3.20;2.00;;;;;;;2.06;85.44;96674.38;5051287;28;20049;-72
2021/04/12 08:04:01;;;;;;;3.72;2.15;;;;;;;2.09;85.71;96673.88;5017228;28;20045;-72
2021/04/12 08:07:09;;;;;;;4.82;2.60;;;;;;;1.98;85.84;96687.47;5050238;28;20056;-72
2021/04/12 08:10:00;;;;;;;5.32;2.50;;;;;;;1.97;85.98;96694.72;5051333;28;20789;-73
2021/04/12 08:13:03;;;;;;;5.07;2.85;;;;;;;2.07;86.53;96691.31;5050860;28;20045;-72
2021/04/12 08:16:04;;;;;;;5.68;2.70;;;;;;;2.19;86.53;96702.69;5030641;28;20045;-73
2021/04/12 08:19:13;;;;;;;4.03;2.70;;;;;;;2.12;85.97;96710.16;5018112;28;20049;-72
2021/04/12 08:22:17;;;;;;;3.47;2.25;;;;;;;2.04;85.72;96724.06;5036319;28;20052;-73
2021/04/12 08:25:20;;;;;;;4.03;2.40;;;;;;;1.96;85.86;96725.31;5050038;28;20037;-73
2021/04/12 08:28:32;;;;;;;4.13;2.70;;;;;;;1.98;86.05;96725.06;5050660;28;20128;-73
2021/04/12 08:31:36;;;;;;;4.82;2.88;;;;;;;1.95;86.43;96736.34;5051384;28;20546;-72
2021/04/12 08:34:48;;;;;;;4.63;3.20;;;;;;;2.15;87.23;96736.53;5049668;28;20045;-73
2021/04/12 08:37:35;;;;;;;4.30;2.95;;;;;;;2.21;86.66;96748.94;5049917;28;20056;-72
2021/04/12 08:40:31;;;;;;;5.40;3.75;;;;;;;2.32;87.40;96760.59;5051369;28;20045;-72
2021/04/12 08:43:33;;;;;;;4.70;3.40;;;;;;;2.31;86.71;96759.78;5049963;28;20041;-72
2021/04/12 08:46:12;;;;;;;6.03;3.90;;;;;;;2.52;87.58;96754.59;5039694;28;20045;-73
2021/04/12 08:49:12;;;;;;;5.60;3.72;;;;;;;2.44;87.61;96763.09;5050946;28;20045;-73
2021/04/12 08:52:13;;;;;;;5.25;3.88;;;;;;;2.55;87.42;96770.19;5050014;28;20137;-73
2021/04/12 08:55:12;;;;;;;6.85;3.72;;;;;;;2.64;87.02;96782.09;5050361;28;20041;-73
2021/04/12 08:58:12;;;;;;;4.38;3.25;;;;;;;2.71;86.37;96779.97;5050965;28;20496;-73
2021/04/12 09:01:13;;;;;;;5.28;3.50;;;;;;;2.75;86.54;96773.03;5022900;28;20053;-73
2021/04/12 09:04:20;;;;;;;4.38;3.45;;;;;;;2.90;86.57;96774.22;5005863;28;20554;-72
2021/04/12 09:07:16;;;;;;;4.20;3.13;;;;;;;2.96;86.37;96789.31;5045969;28;20045;-72
2021/04/12 09:10:01;;;;;;;4.47;3.17;;;;;;;2.97;85.72;96790.94;5046502;28;20049;-72
2021/04/12 09:12:46;;;;;;;4.15;3.40;;;;;;;2.99;84.66;96804.97;5046333;28;20166;-72
2021/04/12 09:15:46;;;;;;;5.47;3.80;;;;;;;3.08;84.99;96806.06;5027127;28;20045;-73
2021/04/12 09:18:45;;;;;;;5.55;3.90;;;;;;;3.18;84.90;96814.22;5026154;28;20501;-72
2021/04/12 09:21:50;;;;;;;5.88;3.67;;;;;;;3.20;85.20;96822.06;5027912;28;20045;-73
2021/04/12 09:24:54;;;;;;;5.05;3.30;;;;;;;3.24;84.35;96823.97;5046968;28;20053;-72
2021/04/12 09:27:43;;;;;;;5.50;3.33;;;;;;;3.19;84.90;96823.13;5045753;28;20091;-72
2021/04/12 09:30:32;;;;;;;4.25;3.00;;;;;;;3.19;83.95;96826.63;5046543;28;20111;-72
2021/04/12 09:33:30;;;;;;;5.57;3.30;;;;;;;3.20;84.07;96844.38;5047427;28;20844;-72
2021/04/12 09:36:36;;;;;;;4.68;3.50;;;;;;;3.33;84.61;96843.91;5045829;28;20055;-72
2021/04/12 09:39:29;;;;;;;4.60;3.50;;;;;;;3.36;83.83;96843.41;5011250;28;20561;-73
2021/04/12 09:42:29;;;;;;;5.13;3.53;;;;;;;3.24;84.45;96855.47;5047582;28;20063;-73
2021/04/12 09:45:40;;;;;;;7.22;3.90;;;;;;;3.33;85.06;96857.38;5043234;28;20049;-72
2021/04/12 09:48:37;;;;;;;6.63;3.60;;;;;;;3.42;84.44;96857.72;5005179;28;20079;-73
2021/04/12 09:51:40;;;;;;;5.57;3.85;;;;;;;3.31;83.79;96873.00;5047080;28;20053;-74
2021/04/12 09:54:28;;;;;;;5.80;4.13;;;;;;;3.44;84.41;96868.22;5026184;28;20517;-73
2021/04/12 09:57:40;;;;;;;5.50;4.13;;;;;;;3.48;84.15;96872.00;5028616;28;20053;-73
2021/04/12 10:00:28;;;;;;;6.53;4.05;;;;;;;3.48;84.37;96872.00;5003843;28;20520;-73
2021/04/12 10:03:19;;;;;;;5.93;4.00;;;;;;;3.50;84.23;96875.25;5049868;28;20469;-72
2021/04/12 10:06:21;;;;;;;6.97;4.75;;;;;;;3.68;84.86;96877.53;5050354;28;20397;-72
2021/04/12 10:09:12;;;;;;;5.32;3.97;;;;;;;3.71;84.06;96882.41;5016644;28;20049;-72
2021/04/12 10:11:47;;;;;;;6.60;4.63;;;;;;;3.70;83.65;96888.03;5049693;28;20302;-72
2021/04/12 10:14:18;;;;;;;6.70;4.28;;;;;;;3.66;82.91;96885.06;5032965;28;20055;-72
2021/04/12 10:16:53;;;;;;;6.05;3.80;;;;;;;3.58;82.10;96882.84;5015849;28;20056;-72
2021/04/12 10:19:21;;;;;;;9.88;4.05;;;;;;;3.49;81.98;96887.09;5049681;28;20049;-73
2021/04/12 10:21:54;;;;;;;6.95;4.10;;;;;;;3.53;81.15;96889.00;5050714;28;20052;-71
2021/04/12 10:24:25;;;;;;;;;;;;;;;3.52;80.78;96894.66;5049646;28;20067;-72
2021/04/12 10:26:57;;;;;;;7.50;4.85;;;;;;;3.56;82.21;96891.19;5050398;28;19970;-72
2021/04/12 10:29:29;;;;;;;5.93;4.40;;;;;;;3.69;82.21;96899.88;5049251;28;20476;-72
2021/04/12 10:32:07;;;;;;;7.38;4.50;;;;;;;3.71;83.01;96898.56;5050552;28;20056;-72
2021/04/12 10:34:40;;;;;;;5.20;3.92;;;;;;;3.77;82.64;96900.22;5050080;28;20045;-73
2021/04/12 10:37:20;;;;;;;6.70;4.50;;;;;;;3.80;82.53;96910.44;5049945;28;20050;-72
2021/04/12 10:39:58;;;;;;;6.28;4.35;;;;;;;3.88;80.86;96911.84;5050750;28;20041;-72
2021/04/12 10:42:33;;;;;;;4.95;3.80;;;;;;;3.86;80.72;96922.06;5049104;28;20037;-72
2021/04/12 10:45:12;;;;;;;5.05;3.78;;;;;;;3.58;79.14;96921.34;5049111;28;20131;-73
2021/04/12 10:47:53;;;;;;;5.25;4.03;;;;;;;3.67;80.87;96929.78;5049487;28;20037;-72
2021/04/12 10:50:28;;;;;;;9.13;5.00;;;;;;;3.78;81.89;96936.84;5048709;28;20128;-72
2021/04/12 10:53:25;;;;;;;5.28;3.97;;;;;;;3.80;80.31;96921.22;5050256;28;20052;-72
2021/04/12 10:56:00;;;;;;;5.13;4.13;;;;;;;3.79;80.06;96924.19;5049469;28;20051;-72
2021/04/12 10:58:45;;;;;;;5.07;3.67;;;;;;;3.79;81.16;96916.09;5052684;28;20049;-72
2021/04/12 11:01:16;;;;;;;7.13;3.97;;;;;;;3.65;80.56;96931.91;5051871;28;20068;-73
2021/04/12 11:03:47;;;;;;;5.85;4.13;;;;;;;3.56;80.87;96936.16;5052305;28;20152;-72
2021/04/12 11:06:35;;;;;;;6.78;4.85;;;;;;;3.52;81.53;96943.13;5052250;28;20049;-73
2021/04/12 11:09:15;;;;;;;6.53;4.75;;;;;;;3.54;81.24;96947.19;5051907;28;20549;-72
2021/04/12 11:11:51;;;;;;;6.55;4.82;;;;;;;3.56;80.82;96953.13;5052646;28;20040;-73
2021/04/12 11:14:27;;;;;;;9.02;4.53;;;;;;;3.59;81.01;96954.47;5051228;28;20045;-74
2021/04/12 11:20:20;;;;;;;7.35;4.25;;;;;;;3.50;80.96;96947.94;5047795;28;20052;-73
2021/04/12 11:22:57;;;;;;;9.32;4.28;;;;;;;3.41;81.21;96953.00;5051722;28;20049;-72
2021/04/12 11:25:36;;;;;;;5.38;3.38;;;;;;;3.33;80.40;96962.34;5051691;28;20045;-72
2021/04/12 11:28:12;;;;;;;6.28;3.92;;;;;;;3.29;81.02;96965.81;5051843;28;20049;-72
2021/04/12 11:30:49;;;;;;;5.93;3.97;;;;;;;3.29;81.18;96972.03;5051680;28;20106;-71
2021/04/12 11:33:27;;;;;;;6.93;3.85;;;;;;;3.39;82.01;96980.22;5052088;28;20053;-72
2021/04/12 11:36:02;;;;;;;5.68;3.72;;;;;;;3.27;81.27;96986.81;5051406;28;20049;-72
2021/04/12 11:38:33;;;;;;;7.18;4.15;;;;;;;3.33;81.50;96989.28;5052241;28;20048;-72
2021/04/12 11:41:10;;;;;;;6.68;4.45;;;;;;;3.33;81.83;96994.66;5052132;28;20057;-73
2021/04/12 11:43:39;;;;;;;6.05;4.13;;;;;;;3.32;81.33;97011.06;5051523;28;20041;-73
2021/04/12 11:46:11;;;;;;;6.25;3.65;;;;;;;3.34;81.89;97017.84;5051795;28;20053;-72
2021/04/12 11:48:48;;;;;;;6.28;4.05;;;;;;;3.35;81.65;97008.69;5050951;28;20056;-72
2021/04/12 11:51:20;;;;;;;6.60;3.78;;;;;;;3.17;80.67;97017.13;5051337;28;20076;-72
2021/04/12 11:53:52;;;;;;;6.07;3.97;;;;;;;3.17;80.89;97008.25;5051259;28;20049;-73
2021/04/12 11:56:43;;;;;;;6.22;4.05;;;;;;;3.17;81.18;97016.31;5051298;28;20053;-73
2021/04/12 11:59:19;;;;;;;6.35;3.97;;;;;;;3.17;81.45;97011.75;5031118;28;20045;-72
2021/04/12 12:01:51;;;;;;;7.45;4.18;;;;;;;3.18;81.31;97002.59;5031168;28;20111;-72
2021/04/12 12:04:38;;;;;;;7.37;4.20;;;;;;;3.35;82.04;97019.47;5031728;28;20053;-73
2021/04/12 12:07:16;;;;;;;5.85;3.80;;;;;;;3.46;81.60;97033.84;5030295;28;20045;-73
2021/04/12 12:09:47;;;;;;;7.30;3.95;;;;;;;3.52;81.39;97029.31;5031444;28;20405;-72
2021/04/12 12:12:35;;;;;;;6.57;3.80;;;;;;;3.56;81.24;97036.63;5030750;28;20049;-72
2021/04/12 12:15:14;;;;;;;6.20;3.22;;;;;;;3.42;81.09;97031.91;5030751;28;20520;-72
2021/04/12 12:17:44;;;;;;;6.18;4.03;;;;;;;3.50;81.61;97036.81;5031460;28;20559;-73
2021/04/12 12:20:17;;;;;;;6.65;4.03;;;;;;;3.46;81.52;97035.72;5043037;28;20047;-73
2021/04/12 12:22:53;;;;;;;6.32;4.00;;;;;;;3.43;81.45;97033.53;5051340;28;20045;-73
2021/04/12 12:25:32;;;;;;;7.13;4.47;;;;;;;3.58;82.21;97029.06;5049455;28;20238;-73
2021/04/12 12:28:11;;;;;;;8.40;5.28;;;;;;;3.67;82.44;97037.50;5050791;28;20049;-72
2021/04/12 12:30:50;;;;;;;8.13;4.82;;;;;;;3.70;81.76;97042.38;5051111;28;20065;-73
2021/04/12 12:33:26;;;;;;;6.22;4.50;;;;;;;3.84;82.35;97048.13;5049778;28;20041;-73
2021/04/12 12:36:03;;;;;;;7.88;4.95;;;;;;;3.76;81.51;97052.13;5051566;28;20053;-73
2021/04/12 12:38:50;;;;;;;7.68;5.28;;;;;;;3.82;81.91;97047.59;5050100;28;20045;-74
2021/04/12 12:41:20;;;;;;;7.82;5.05;;;;;;;3.81;82.01;97054.03;5050054;28;20056;-73
2021/04/12 12:43:48;;;;;;;5.85;4.35;;;;;;;3.86;81.44;97046.00;5050980;28;20049;-74
2021/04/12 12:46:20;;;;;;;8.18;5.28;;;;;;;3.78;82.64;97050.00;5049726;28;20102;-74
2021/04/12 12:48:51;;;;;;;7.90;5.18;;;;;;;3.78;82.76;97055.38;5051207;28;20049;-73
2021/04/12 12:51:24;;;;;;;6.80;4.25;;;;;;;3.72;81.12;97064.50;5049016;28;20131;-73
2021/04/12 12:53:57;;;;;;;9.18;4.05;;;;;;;3.65;80.84;97059.31;5051147;28;20053;-73
2021/04/12 12:56:27;;;;;;;8.73;4.65;;;;;;;3.67;82.16;97065.25;5049620;28;20053;-73
2021/04/12 12:58:59;;;;;;;7.65;4.82;;;;;;;3.67;81.42;97067.13;5050342;28;20102;-73
2021/04/12 13:01:29;;;;;;;7.57;4.93;;;;;;;3.50;80.85;97061.03;5050216;28;20060;-74
2021/04/12 13:04:07;;;;;;;8.45;4.40;;;;;;;3.21;81.13;97069.38;5049734;28;20051;-73
2021/04/12 13:06:34;;;;;;;8.32;4.90;;;;;;;3.21;82.47;97065.88;5050655;28;20041;-74
2021/04/12 13:09:04;;;;;;;7.53;4.68;;;;;;;3.07;82.12;97060.88;5049922;28;20045;-73
2021/04/12 13:11:33;;;;;;;8.35;5.03;;;;;;;2.99;82.09;97057.84;5050662;28;20072;-73
2021/04/12 13:14:11;;;;;;;7.28;4.63;;;;;;;3.06;82.86;97055.75;5049921;28;20562;-74
2021/04/12 13:16:38;;;;;;;12.52;6.38;;;;;;;3.15;83.65;97056.94;5050215;28;20410;-73
2021/04/12 13:19:06;;;;;;;11.65;6.22;;;;;;;3.20;83.35;97059.69;5049644;28;20045;-73